createdAt,value
2022-11-16T00:02:11.191Z,87.90
2022-11-16T00:06:11.272Z,88.20
2022-11-16T00:09:52.973Z,87.90
2022-11-16T00:13:37.133Z,87.70
2022-11-16T00:17:18.874Z,87.60
2022-11-16T00:21:05.963Z,87.70
2022-11-16T00:24:47.698Z,87.50
2022-11-16T00:28:29.401Z,87.50
2022-11-16T00:32:14.303Z,87.50
2022-11-16T00:35:56.068Z,87.30
2022-11-16T00:39:37.768Z,87.00
2022-11-16T00:43:41.608Z,87.10
2022-11-16T00:47:23.352Z,86.80
2022-11-16T00:51:05.294Z,87.30
2022-11-16T00:54:47.194Z,87.10
2022-11-16T00:58:29.390Z,87.40
2022-11-16T01:02:12.389Z,87.60
2022-11-16T01:05:59.540Z,87.90
2022-11-16T01:09:41.736Z,87.90
2022-11-16T01:13:24.829Z,88.40
2022-11-16T01:17:06.622Z,88.40
2022-11-16T01:20:48.305Z,88.30
2022-11-16T01:24:34.216Z,88.20
2022-11-16T01:28:15.906Z,88.10
2022-11-16T01:32:37.028Z,87.80
2022-11-16T01:36:18.793Z,87.50
2022-11-16T01:40:00.486Z,87.70
2022-11-16T01:44:00.917Z,87.50
2022-11-16T01:47:42.697Z,87.30
2022-11-16T01:51:25.650Z,87.40
2022-11-16T01:55:07.633Z,87.80
2022-11-16T01:58:49.399Z,88.00
2022-11-16T02:02:32.124Z,88.00
2022-11-16T02:06:26.309Z,88.00
2022-11-16T02:10:18.275Z,88.10
2022-11-16T02:14:34.226Z,88.10
2022-11-16T02:18:20.337Z,88.70
2022-11-16T02:22:39.965Z,88.40
2022-11-16T02:26:44.669Z,88.60
2022-11-16T02:30:26.442Z,88.50
2022-11-16T02:34:15.081Z,88.20
2022-11-16T02:37:59.262Z,88.60
2022-11-16T02:42:37.650Z,88.50
2022-11-16T02:46:25.998Z,88.70
2022-11-16T02:50:11.468Z,88.50
2022-11-16T02:54:12.687Z,88.70
2022-11-16T02:58:06.847Z,88.70
2022-11-16T03:02:26.289Z,88.50
2022-11-16T03:06:12.877Z,88.70
2022-11-16T03:09:54.591Z,88.50
2022-11-16T03:13:36.530Z,88.60
2022-11-16T03:17:43.704Z,88.60
2022-11-16T03:21:45.127Z,88.90
2022-11-16T03:25:29.856Z,89.10
2022-11-16T03:29:18.981Z,89.20
2022-11-16T03:33:14.233Z,89.90
2022-11-16T03:36:55.930Z,89.10
2022-11-16T03:40:37.641Z,89.00
2022-11-16T03:44:20.552Z,89.20
2022-11-16T03:48:02.282Z,89.50
2022-11-16T03:51:45.069Z,89.40
2022-11-16T03:55:26.775Z,89.30
2022-11-16T03:59:08.482Z,89.10
2022-11-16T04:02:51.422Z,89.10
2022-11-16T04:06:51.499Z,89.40
2022-11-16T04:10:51.509Z,89.80
2022-11-16T04:14:52.134Z,89.80
2022-11-16T04:18:52.273Z,89.80
2022-11-16T04:23:01.203Z,90.00
2022-11-16T04:27:04.327Z,89.90
2022-11-16T04:31:06.385Z,90.00
2022-11-16T04:35:06.371Z,90.10
2022-11-16T04:38:48.061Z,90.20
2022-11-16T04:42:31.905Z,90.20
2022-11-16T04:46:32.167Z,90.30
2022-11-16T04:50:14.162Z,90.10
2022-11-16T04:53:56.981Z,89.90
2022-11-16T04:57:39.215Z,90.00
2022-11-16T05:01:42.113Z,89.80
2022-11-16T05:05:23.917Z,89.70
2022-11-16T05:09:05.696Z,89.90
2022-11-16T05:12:49.662Z,90.00
2022-11-16T05:16:31.582Z,90.30
2022-11-16T05:20:31.624Z,89.80
2022-11-16T05:24:32.196Z,89.70
2022-11-16T05:28:13.874Z,89.40
2022-11-16T05:31:58.467Z,89.60
2022-11-16T05:35:40.171Z,89.40
2022-11-16T05:39:21.998Z,88.90
2022-11-16T05:43:03.968Z,89.00
2022-11-16T05:46:45.741Z,88.90
2022-11-16T05:50:27.662Z,88.80
2022-11-16T05:54:13.168Z,89.80
2022-11-16T05:57:55.515Z,89.60
2022-11-16T06:01:37.291Z,89.20
2022-11-16T06:05:18.965Z,89.60
2022-11-16T06:09:00.687Z,90.10
2022-11-16T06:12:44.548Z,89.60
2022-11-16T06:16:26.318Z,89.60
2022-11-16T06:20:08.598Z,89.50
2022-11-16T06:23:51.468Z,89.70
2022-11-16T06:27:33.145Z,89.50
2022-11-16T06:31:15.091Z,89.70
2022-11-16T06:34:56.851Z,89.50
2022-11-16T06:38:38.736Z,89.50
2022-11-16T06:42:39.498Z,89.20
2022-11-16T06:46:21.275Z,88.90
2022-11-16T06:50:03.219Z,88.90
2022-11-16T06:53:45.229Z,89.60
2022-11-16T06:57:26.907Z,88.90
2022-11-16T07:01:11.009Z,88.60
2022-11-16T07:04:52.756Z,88.70
2022-11-16T07:08:34.768Z,88.40
2022-11-16T07:12:17.943Z,88.30
2022-11-16T07:16:08.430Z,88.70
2022-11-16T07:19:50.145Z,88.50
2022-11-16T07:23:34.412Z,88.50
2022-11-16T07:27:16.160Z,88.40
2022-11-16T07:31:04.754Z,88.60
2022-11-16T07:34:46.488Z,88.60
2022-11-16T07:38:28.293Z,88.80
2022-11-16T07:42:11.857Z,88.50
2022-11-16T07:45:54.374Z,88.90
2022-11-16T07:49:36.057Z,89.00
2022-11-16T07:53:24.257Z,89.00
2022-11-16T07:57:05.961Z,89.40
2022-11-16T08:00:47.778Z,89.30
2022-11-16T08:04:34.805Z,89.40
2022-11-16T08:08:16.546Z,89.50
2022-11-16T08:12:00.054Z,89.70
2022-11-16T08:15:41.773Z,89.70
2022-11-16T08:19:23.471Z,89.90
2022-11-16T08:23:07.227Z,90.00
2022-11-16T08:26:49.929Z,90.30
2022-11-16T08:30:31.615Z,90.00
2022-11-16T08:34:15.861Z,90.10
2022-11-16T08:37:57.641Z,90.10
2022-11-16T08:41:42.305Z,90.30
2022-11-16T08:45:24.404Z,90.10
2022-11-16T08:49:06.102Z,90.20
2022-11-16T08:53:08.754Z,90.40
2022-11-16T08:56:50.440Z,90.20
2022-11-16T09:00:32.239Z,90.00
2022-11-16T09:04:14.182Z,90.00
2022-11-16T09:07:56.087Z,89.60
2022-11-16T09:11:56.882Z,89.50
2022-11-16T09:15:38.645Z,89.10
2022-11-16T09:19:21.512Z,89.30
2022-11-16T09:23:04.462Z,89.00
2022-11-16T09:26:46.171Z,90.10
2022-11-16T09:30:27.854Z,89.90
2022-11-16T09:34:09.853Z,89.80
2022-11-16T09:37:51.558Z,89.10
2022-11-16T09:41:50.167Z,88.50
2022-11-16T09:45:48.578Z,88.10
2022-11-16T09:49:39.580Z,87.70
2022-11-16T09:53:33.955Z,87.80
2022-11-16T09:57:16.709Z,87.80
2022-11-16T10:01:06.379Z,88.20
2022-11-16T10:05:27.701Z,87.50
2022-11-16T10:09:11.136Z,88.10
2022-11-16T10:13:33.339Z,88.80
2022-11-16T10:17:17.921Z,89.00
2022-11-16T10:21:23.067Z,88.50
2022-11-16T10:25:27.465Z,88.20
2022-11-16T10:29:33.124Z,87.40
2022-11-16T10:33:16.953Z,87.50
2022-11-16T10:37:03.381Z,87.10
2022-11-16T10:40:51.786Z,86.70
2022-11-16T10:44:46.675Z,86.80
2022-11-16T10:48:58.440Z,87.20
2022-11-16T10:53:01.093Z,86.30
2022-11-16T10:56:45.433Z,86.40
2022-11-16T11:00:49.451Z,86.90
2022-11-16T11:04:33.352Z,85.70
2022-11-16T11:08:23.758Z,87.20
2022-11-16T11:12:34.887Z,86.10
2022-11-16T11:16:18.709Z,85.90
2022-11-16T11:20:07.376Z,85.60
2022-11-16T11:23:52.518Z,85.10
2022-11-16T11:27:34.515Z,84.80
2022-11-16T11:31:46.200Z,84.70
2022-11-16T11:35:31.877Z,84.60
2022-11-16T11:39:13.619Z,84.60
2022-11-16T11:43:04.175Z,84.90
2022-11-16T11:50:59.061Z,84.20
2022-11-16T11:54:46.255Z,84.30
2022-11-16T11:58:33.086Z,84.50
2022-11-16T12:02:21.095Z,84.10
2022-11-16T12:06:05.910Z,84.20
2022-11-16T12:09:58.506Z,84.40
2022-11-16T12:14:02.051Z,84.50
2022-11-16T12:18:10.774Z,84.60
2022-11-16T12:22:06.960Z,84.10
2022-11-16T12:25:59.570Z,84.40
2022-11-16T12:30:13.854Z,85.40
2022-11-16T12:33:56.572Z,84.00
2022-11-16T12:38:04.669Z,85.30
2022-11-16T12:42:03.705Z,83.80
2022-11-16T12:45:51.393Z,83.20
2022-11-16T12:50:02.210Z,83.60
2022-11-16T12:53:58.065Z,83.40
2022-11-16T12:57:54.734Z,83.60
2022-11-16T13:02:26.116Z,83.50
2022-11-16T13:06:10.068Z,83.00
2022-11-16T13:09:57.550Z,82.70
2022-11-16T13:13:42.477Z,82.80
2022-11-16T13:17:28.906Z,81.70
2022-11-16T13:21:31.662Z,81.90
2022-11-16T13:25:20.670Z,82.40
2022-11-16T13:29:30.220Z,82.40
2022-11-16T13:33:30.613Z,82.50
2022-11-16T13:37:34.033Z,82.60
2022-11-16T13:41:39.153Z,81.40
2022-11-16T13:45:21.773Z,81.90
2022-11-16T13:49:03.478Z,81.90
2022-11-16T13:53:41.230Z,82.30
2022-11-16T13:56:54.686Z,81.60
2022-11-16T14:00:37.973Z,82.10
2022-11-16T14:04:42.082Z,82.10
2022-11-16T14:08:26.872Z,82.30
2022-11-16T14:12:37.682Z,83.50
2022-11-16T14:16:19.492Z,81.80
2022-11-16T14:20:01.195Z,82.40
2022-11-16T14:24:20.724Z,82.40
2022-11-16T14:28:17.916Z,82.40
2022-11-16T14:32:24.642Z,82.60
2022-11-16T14:36:07.674Z,82.90
2022-11-16T14:39:50.460Z,83.10
2022-11-16T14:43:53.399Z,83.40
2022-11-16T14:47:35.986Z,83.40
2022-11-16T14:51:57.584Z,83.80
2022-11-16T14:55:43.446Z,83.70
2022-11-16T14:59:25.538Z,83.90
2022-11-16T15:04:03.810Z,84.00
2022-11-16T15:07:46.473Z,84.10
2022-11-16T15:11:56.524Z,84.20
2022-11-16T15:15:38.485Z,84.40
2022-11-16T15:19:20.435Z,84.30
2022-11-16T15:23:04.837Z,84.70
2022-11-16T15:26:46.527Z,84.90
2022-11-16T15:30:29.970Z,84.90
2022-11-16T15:34:17.040Z,85.10
2022-11-16T15:38:05.299Z,85.00
2022-11-16T15:41:50.174Z,84.80
2022-11-16T15:45:32.004Z,85.10
2022-11-16T15:49:19.519Z,85.10
2022-11-16T15:53:01.443Z,85.20
2022-11-16T15:56:45.766Z,85.60
2022-11-16T16:00:28.034Z,85.60
2022-11-16T16:04:16.926Z,85.80
2022-11-16T16:07:59.550Z,86.30
2022-11-16T16:11:42.442Z,86.30
2022-11-16T16:15:36.066Z,86.60
2022-11-16T16:19:38.830Z,86.70
2022-11-16T16:23:53.851Z,86.40
2022-11-16T16:27:39.741Z,86.70
2022-11-16T16:31:23.593Z,86.50
2022-11-16T16:35:07.311Z,86.70
2022-11-16T16:38:48.932Z,86.60
2022-11-16T16:42:30.859Z,86.50
2022-11-16T16:46:13.213Z,86.60
2022-11-16T16:49:54.952Z,86.40
2022-11-16T16:53:55.631Z,86.20
2022-11-16T16:57:37.356Z,86.50
2022-11-16T17:01:38.042Z,86.50
2022-11-16T17:05:19.771Z,86.80
2022-11-16T17:09:01.510Z,87.30
2022-11-16T17:12:43.673Z,86.90
2022-11-16T17:16:25.441Z,87.10
2022-11-16T17:20:08.526Z,87.20
2022-11-16T17:24:09.508Z,87.00
2022-11-16T17:27:51.239Z,87.10
2022-11-16T17:31:36.276Z,87.40
2022-11-16T17:35:18.042Z,87.40
2022-11-16T17:39:00.475Z,87.60
2022-11-16T17:43:03.259Z,87.60
2022-11-16T17:46:44.958Z,88.00
2022-11-16T17:50:26.691Z,87.70
2022-11-16T17:54:08.843Z,87.70
2022-11-16T17:57:51.440Z,88.00
2022-11-16T18:01:52.845Z,87.80
2022-11-16T18:05:34.541Z,87.80
2022-11-16T18:09:16.308Z,88.10
2022-11-16T18:12:58.289Z,87.90
2022-11-16T18:16:43.221Z,87.90
2022-11-16T18:20:25.012Z,87.80
2022-11-16T18:24:07.332Z,87.70
2022-11-16T18:27:53.141Z,87.50
2022-11-16T18:31:35.192Z,87.60
2022-11-16T18:35:17.072Z,87.70
2022-11-16T18:38:58.745Z,87.80
2022-11-16T18:42:42.640Z,87.80
2022-11-16T18:46:25.867Z,87.70
2022-11-16T18:50:18.030Z,87.60
2022-11-16T18:54:02.051Z,87.80
2022-11-16T18:57:43.771Z,87.60
2022-11-16T19:01:27.568Z,87.60
2022-11-16T19:05:09.453Z,87.90
2022-11-16T19:08:56.337Z,87.60
2022-11-16T19:12:39.573Z,87.90
2022-11-16T19:16:21.484Z,88.10
2022-11-16T19:20:03.288Z,88.90
2022-11-16T19:23:46.617Z,88.10
2022-11-16T19:27:28.437Z,88.10
2022-11-16T19:31:13.229Z,87.90
2022-11-16T19:34:54.943Z,88.20
2022-11-16T19:38:36.898Z,88.20
2022-11-16T19:42:18.806Z,88.20
2022-11-16T19:46:04.181Z,88.40
2022-11-16T19:49:47.624Z,88.60
2022-11-16T19:53:29.422Z,88.40
2022-11-16T19:57:13.350Z,88.80
2022-11-16T20:01:09.409Z,89.00
2022-11-16T20:04:51.174Z,89.30
2022-11-16T20:08:32.902Z,89.10
2022-11-16T20:12:52.380Z,89.50
2022-11-16T20:16:39.010Z,89.80
2022-11-16T20:20:21.085Z,89.70
2022-11-16T20:24:21.999Z,89.80
2022-11-16T20:28:05.452Z,90.10
2022-11-16T20:32:06.322Z,89.90
2022-11-16T20:35:48.099Z,90.00
2022-11-16T20:39:29.792Z,89.90
2022-11-16T20:43:14.379Z,89.90
2022-11-16T20:46:56.079Z,90.10
2022-11-16T20:50:37.783Z,90.30
2022-11-16T20:54:40.400Z,90.00
2022-11-16T20:58:23.045Z,90.00
2022-11-16T21:02:25.882Z,90.10
2022-11-16T21:06:08.773Z,90.20
2022-11-16T21:10:09.063Z,90.10
2022-11-16T21:14:16.743Z,90.10
2022-11-16T21:17:58.718Z,90.10
2022-11-16T21:21:42.511Z,90.20
2022-11-16T21:25:24.557Z,90.20
2022-11-16T21:29:06.705Z,90.20
2022-11-16T21:32:50.702Z,90.20
2022-11-16T21:36:32.921Z,90.20
2022-11-16T21:40:14.841Z,90.10
2022-11-16T21:43:56.880Z,90.20
2022-11-16T21:47:38.555Z,90.10
2022-11-16T21:51:22.971Z,90.10
2022-11-16T21:55:05.075Z,90.30
2022-11-16T21:58:46.967Z,90.20
2022-11-16T22:02:52.770Z,90.30
2022-11-16T22:06:53.291Z,90.30
2022-11-16T22:10:35.175Z,90.30
2022-11-16T22:14:18.121Z,90.20
2022-11-16T22:18:03.284Z,90.20
2022-11-16T22:21:45.081Z,90.30
2022-11-16T22:25:29.127Z,90.20
2022-11-16T22:29:11.050Z,90.40
2022-11-16T22:32:53.865Z,90.40
2022-11-16T22:36:35.565Z,90.60
2022-11-16T22:40:18.015Z,90.50
2022-11-16T22:44:18.644Z,90.40
2022-11-16T22:48:00.338Z,90.50
2022-11-16T22:51:42.318Z,90.50
2022-11-16T22:55:24.004Z,90.60
2022-11-16T22:59:05.816Z,90.70
2022-11-16T23:02:48.621Z,90.80
2022-11-16T23:06:30.476Z,90.90
2022-11-16T23:10:12.228Z,91.00
2022-11-16T23:14:12.375Z,91.00
2022-11-16T23:17:54.065Z,90.90
2022-11-16T23:22:08.117Z,90.80
2022-11-16T23:26:08.461Z,91.00
2022-11-16T23:29:50.137Z,91.20
2022-11-16T23:33:50.852Z,91.30
2022-11-16T23:37:32.561Z,91.20
2022-11-16T23:41:32.884Z,91.10
2022-11-16T23:45:15.341Z,91.10
2022-11-16T23:48:57.376Z,91.00
2022-11-16T23:52:39.159Z,91.10
2022-11-16T23:56:21.209Z,91.00
